Perch River, New York
Current Conditions -  °F | °C
As of 10:56 PM on Wednesday 26 Nov 2014 (Local Time) from KART Reporting Station
Light Snow Light Snow  
Wind Chill: 22°   Ceiling: 5000
Heat Index: 30°   Visibility: 5mi
Dew Point: 23°   Wind: 9mph
Humidity: 75%   Direction: 10°N
Pressure: 30.01"   Gusts: NA
Location:  44.0116°N, 76.0789°W
Report Text: KART 270356Z AUTO 01008KT 5SM -SN FEW011 OVC050 M01/M05 A3001 RMK AO2 SNB07 SLP169 P0000 T10111050
Loading
Personal Weather Stations






























Interactive Weather Map New forecast layout! Learn more

10-Day Weather Forecast

Advertisements
Track Severe Weather on mobile